createdAt,value
2023-10-29T00:01:45.940Z,4.23
2023-10-29T00:04:14.109Z,4.21
2023-10-29T00:06:42.290Z,4.18
2023-10-29T00:09:10.484Z,4.16
2023-10-29T00:11:38.601Z,4.14
2023-10-29T00:14:07.570Z,4.14
2023-10-29T00:16:35.804Z,4.12
2023-10-29T00:19:04.396Z,4.10
2023-10-29T00:21:35.785Z,4.07
2023-10-29T00:24:04.256Z,4.04
2023-10-29T00:26:32.511Z,3.90
2023-10-29T00:29:00.729Z,3.97
2023-10-29T00:31:28.964Z,3.93
2023-10-29T00:33:57.172Z,3.88
2023-10-29T00:36:25.338Z,3.85
2023-10-29T00:38:53.598Z,3.82
2023-10-29T00:41:21.870Z,3.80
2023-10-29T00:43:50.002Z,3.79
2023-10-29T00:46:18.331Z,3.78
2023-10-29T00:48:47.325Z,3.65
2023-10-29T00:51:15.849Z,3.76
2023-10-29T00:53:45.509Z,3.76
2023-10-29T00:56:15.201Z,3.77
2023-10-29T00:58:43.564Z,3.77
2023-10-29T01:01:11.795Z,3.77
2023-10-29T01:03:40.120Z,3.74
2023-10-29T01:06:09.586Z,3.76
2023-10-29T01:08:38.925Z,3.75
2023-10-29T01:11:08.336Z,3.78
2023-10-29T01:13:36.448Z,3.80
2023-10-29T01:16:06.482Z,3.83
2023-10-29T01:18:34.703Z,3.84
2023-10-29T01:21:02.930Z,3.86
2023-10-29T01:23:31.624Z,3.90
2023-10-29T01:26:00.769Z,3.93
2023-10-29T01:28:29.089Z,3.95
2023-10-29T01:30:57.454Z,3.84
2023-10-29T01:33:27.992Z,3.97
2023-10-29T01:35:57.448Z,3.95
2023-10-29T01:38:25.641Z,3.94
2023-10-29T01:40:53.951Z,3.95
2023-10-29T01:43:22.610Z,3.83
2023-10-29T01:45:50.734Z,3.94
2023-10-29T01:48:19.025Z,3.95
2023-10-29T01:50:48.705Z,3.94
2023-10-29T01:53:18.611Z,3.92
2023-10-29T01:55:46.782Z,3.92
2023-10-29T01:58:15.025Z,3.92
2023-10-29T02:00:43.153Z,3.91
2023-10-29T02:03:11.398Z,3.91
2023-10-29T02:05:39.820Z,3.91
2023-10-29T02:08:07.947Z,3.90
2023-10-29T02:10:36.045Z,3.89
2023-10-29T02:13:04.142Z,3.90
2023-10-29T02:15:32.276Z,3.89
2023-10-29T02:18:00.535Z,3.85
2023-10-29T02:20:28.946Z,3.86
2023-10-29T02:22:57.074Z,3.85
2023-10-29T02:25:25.212Z,3.84
2023-10-29T02:27:53.319Z,3.84
2023-10-29T02:30:21.432Z,3.84
2023-10-29T02:32:51.126Z,3.82
2023-10-29T02:35:19.276Z,3.82
2023-10-29T02:37:49.460Z,3.81
2023-10-29T02:40:17.688Z,3.79
2023-10-29T02:42:45.975Z,3.76
2023-10-29T02:45:14.128Z,3.73
2023-10-29T02:47:42.260Z,3.70
2023-10-29T02:50:10.663Z,3.67
2023-10-29T02:52:38.863Z,3.65
2023-10-29T02:55:08.296Z,3.62
2023-10-29T02:57:36.416Z,3.60
2023-10-29T03:00:05.535Z,3.59
2023-10-29T03:02:33.743Z,3.56
2023-10-29T03:05:02.354Z,3.57
2023-10-29T03:07:31.880Z,3.56
2023-10-29T03:10:00.137Z,3.54
2023-10-29T03:12:28.393Z,3.53
2023-10-29T03:14:56.718Z,3.53
2023-10-29T03:17:24.839Z,3.51
2023-10-29T03:19:53.063Z,3.49
2023-10-29T03:22:21.170Z,3.47
2023-10-29T03:24:49.687Z,3.45
2023-10-29T03:27:18.195Z,3.44
2023-10-29T03:29:46.403Z,3.42
2023-10-29T03:32:14.559Z,3.40
2023-10-29T03:34:42.675Z,3.39
2023-10-29T03:37:10.885Z,3.36
2023-10-29T03:39:38.985Z,3.34
2023-10-29T03:42:08.895Z,3.34
2023-10-29T03:44:37.035Z,3.33
2023-10-29T03:47:05.484Z,3.33
2023-10-29T03:49:33.867Z,3.33
2023-10-29T03:52:02.133Z,3.33
2023-10-29T03:54:30.238Z,3.33
2023-10-29T03:56:58.488Z,3.35
2023-10-29T03:59:26.971Z,3.37
2023-10-29T04:01:55.199Z,3.39
2023-10-29T04:04:23.441Z,3.40
2023-10-29T04:06:51.708Z,3.42
2023-10-29T04:09:20.129Z,3.39
2023-10-29T04:11:48.404Z,3.43
2023-10-29T04:14:17.505Z,3.43
2023-10-29T04:16:45.631Z,3.45
2023-10-29T04:19:13.761Z,3.47
2023-10-29T04:21:41.853Z,3.48
2023-10-29T04:24:10.164Z,3.49
2023-10-29T04:26:38.629Z,3.51
2023-10-29T04:29:06.849Z,3.41
2023-10-29T04:31:35.029Z,3.55
2023-10-29T04:34:03.268Z,3.55
2023-10-29T04:36:31.440Z,3.44
2023-10-29T04:38:59.622Z,3.58
2023-10-29T04:41:27.820Z,3.60
2023-10-29T04:43:55.997Z,3.62
2023-10-29T04:46:24.196Z,3.63
2023-10-29T04:48:52.446Z,3.64
2023-10-29T04:51:21.373Z,3.65
2023-10-29T04:53:49.474Z,3.68
2023-10-29T04:56:17.581Z,3.70
2023-10-29T04:58:45.692Z,3.72
2023-10-29T05:01:14.810Z,3.73
2023-10-29T05:03:43.056Z,3.75
2023-10-29T05:06:21.654Z,3.76
2023-10-29T05:08:51.132Z,3.78
2023-10-29T05:11:19.377Z,3.78
2023-10-29T05:13:47.554Z,3.80
2023-10-29T05:16:16.113Z,3.82
2023-10-29T05:18:44.230Z,3.83
2023-10-29T05:21:12.673Z,3.85
2023-10-29T05:23:40.892Z,3.88
2023-10-29T05:26:09.003Z,3.90
2023-10-29T05:28:37.339Z,3.92
2023-10-29T05:31:05.499Z,3.95
2023-10-29T05:33:33.724Z,3.98
2023-10-29T05:36:02.354Z,4.00
2023-10-29T05:38:30.945Z,4.01
2023-10-29T05:40:59.120Z,4.03
2023-10-29T05:43:27.203Z,4.04
2023-10-29T05:45:56.125Z,4.05
2023-10-29T05:48:24.329Z,4.05
2023-10-29T05:50:53.236Z,4.07
2023-10-29T05:53:21.442Z,4.08
2023-10-29T05:55:49.515Z,4.10
2023-10-29T05:58:17.604Z,4.11
2023-10-29T06:00:46.325Z,4.12
2023-10-29T06:03:14.622Z,4.13
2023-10-29T06:05:43.312Z,4.14
2023-10-29T06:08:11.552Z,4.15
2023-10-29T06:10:39.650Z,4.15
2023-10-29T06:13:07.832Z,4.16
2023-10-29T06:15:35.987Z,4.16
2023-10-29T06:18:05.616Z,4.16
2023-10-29T06:20:34.637Z,4.18
2023-10-29T06:23:02.762Z,4.18
2023-10-29T06:25:30.996Z,4.20
2023-10-29T06:27:59.082Z,4.23
2023-10-29T06:30:27.305Z,4.25
2023-10-29T06:32:55.662Z,4.24
2023-10-29T06:35:24.207Z,4.26
2023-10-29T06:37:53.757Z,4.26
2023-10-29T06:40:22.915Z,4.27
2023-10-29T06:42:51.047Z,4.27
2023-10-29T06:45:19.189Z,4.27
2023-10-29T06:47:48.135Z,4.28
2023-10-29T06:50:16.470Z,4.30
2023-10-29T06:52:44.681Z,4.20
2023-10-29T06:55:13.998Z,4.33
2023-10-29T06:57:42.213Z,4.35
2023-10-29T07:00:11.011Z,4.38
2023-10-29T07:02:39.495Z,4.29
2023-10-29T07:05:08.200Z,4.44
2023-10-29T07:07:36.408Z,4.48
2023-10-29T07:10:07.884Z,4.52
2023-10-29T07:12:36.075Z,4.56
2023-10-29T07:15:04.744Z,4.58
2023-10-29T07:17:33.038Z,4.60
2023-10-29T07:20:01.264Z,4.61
2023-10-29T07:22:30.530Z,4.64
2023-10-29T07:24:59.345Z,4.66
2023-10-29T07:27:27.665Z,4.68
2023-10-29T07:29:55.793Z,4.69
2023-10-29T07:32:24.409Z,4.72
2023-10-29T07:34:52.593Z,4.73
2023-10-29T07:37:20.814Z,4.74
2023-10-29T07:39:48.943Z,4.76
2023-10-29T07:42:17.129Z,4.80
2023-10-29T07:44:45.226Z,4.83
2023-10-29T07:47:13.924Z,4.85
2023-10-29T07:49:43.616Z,4.87
2023-10-29T07:52:11.802Z,4.91
2023-10-29T07:54:41.424Z,4.92
2023-10-29T07:57:09.645Z,4.95
2023-10-29T07:59:37.870Z,4.95
2023-10-29T08:02:07.059Z,4.97
2023-10-29T08:04:35.309Z,4.97
2023-10-29T08:07:05.121Z,4.97
2023-10-29T08:09:33.877Z,4.78
2023-10-29T08:12:02.031Z,4.98
2023-10-29T08:14:30.287Z,4.99
2023-10-29T08:16:58.626Z,5.00
2023-10-29T08:19:28.297Z,5.02
2023-10-29T08:21:56.431Z,5.04
2023-10-29T08:24:24.601Z,5.05
2023-10-29T08:26:52.760Z,5.06
2023-10-29T08:29:20.888Z,5.07
2023-10-29T08:31:49.044Z,5.08
2023-10-29T08:34:17.414Z,5.08
2023-10-29T08:36:45.579Z,5.07
2023-10-29T08:39:15.379Z,5.06
2023-10-29T08:41:43.493Z,5.04
2023-10-29T08:44:11.725Z,5.08
2023-10-29T08:46:40.170Z,5.11
2023-10-29T08:49:08.882Z,5.15
2023-10-29T08:51:37.013Z,5.18
2023-10-29T08:54:05.589Z,5.18
2023-10-29T08:56:35.168Z,5.24
2023-10-29T08:59:05.587Z,5.24
2023-10-29T09:01:34.103Z,5.25
2023-10-29T09:04:05.323Z,5.28
2023-10-29T09:06:34.018Z,5.32
2023-10-29T09:09:02.304Z,5.35
2023-10-29T09:11:30.491Z,5.37
2023-10-29T09:13:59.136Z,5.38
2023-10-29T09:16:27.359Z,5.39
2023-10-29T09:18:55.897Z,5.38
2023-10-29T09:21:24.131Z,5.41
2023-10-29T09:23:52.288Z,5.42
2023-10-29T09:26:20.468Z,5.44
2023-10-29T09:28:49.304Z,5.46
2023-10-29T09:31:18.842Z,5.47
2023-10-29T09:33:48.387Z,5.46
2023-10-29T09:36:17.886Z,5.36
2023-10-29T09:38:47.050Z,5.48
2023-10-29T09:41:21.682Z,5.50
2023-10-29T09:43:53.411Z,5.52
2023-10-29T09:46:25.342Z,5.53
2023-10-29T09:48:55.047Z,5.38
2023-10-29T09:51:23.537Z,5.54
2023-10-29T09:53:55.769Z,5.50
2023-10-29T09:56:25.494Z,5.51
2023-10-29T09:58:53.843Z,5.49
2023-10-29T10:01:22.172Z,5.48
2023-10-29T10:03:50.459Z,5.47
2023-10-29T10:06:20.837Z,5.47
2023-10-29T10:08:57.419Z,5.48
2023-10-29T10:11:25.942Z,5.47
2023-10-29T10:13:54.272Z,5.49
2023-10-29T10:16:22.670Z,5.49
2023-10-29T10:18:56.395Z,5.51
2023-10-29T10:21:26.395Z,5.53
2023-10-29T10:23:58.992Z,5.55
2023-10-29T10:26:30.240Z,5.57
2023-10-29T10:29:00.901Z,5.56
2023-10-29T10:31:30.424Z,5.58
2023-10-29T10:34:12.707Z,5.58
2023-10-29T10:36:50.523Z,5.60
2023-10-29T10:39:23.925Z,5.49
2023-10-29T10:41:52.406Z,5.63
2023-10-29T10:44:21.431Z,5.64
2023-10-29T10:46:52.450Z,5.66
2023-10-29T10:49:21.392Z,5.68
2023-10-29T10:51:57.362Z,5.70
2023-10-29T10:54:26.532Z,5.73
2023-10-29T10:56:57.334Z,5.76
2023-10-29T10:59:25.610Z,5.79
2023-10-29T11:01:53.835Z,5.81
2023-10-29T11:04:25.186Z,5.82
2023-10-29T11:06:54.410Z,5.83
2023-10-29T11:09:24.294Z,5.85
2023-10-29T11:11:55.984Z,5.89
2023-10-29T11:14:25.481Z,5.90
2023-10-29T11:16:57.468Z,5.88
2023-10-29T11:19:48.541Z,5.87
2023-10-29T11:22:30.472Z,5.86
2023-10-29T11:25:10.561Z,5.86
2023-10-29T11:27:40.608Z,5.85
2023-10-29T11:30:15.967Z,5.84
2023-10-29T11:32:45.673Z,5.83
2023-10-29T11:35:20.828Z,5.84
2023-10-29T11:37:51.852Z,5.86
2023-10-29T11:40:33.644Z,5.87
2023-10-29T11:43:20.218Z,5.88
2023-10-29T11:46:02.356Z,5.88
2023-10-29T11:48:31.431Z,5.90
2023-10-29T11:51:10.324Z,5.91
2023-10-29T11:53:39.311Z,5.68
2023-10-29T11:56:11.698Z,5.91
2023-10-29T11:58:40.179Z,5.91
2023-10-29T12:01:08.650Z,5.91
2023-10-29T12:03:37.063Z,5.92
2023-10-29T12:06:05.486Z,5.82
2023-10-29T12:08:33.865Z,5.96
2023-10-29T12:11:02.168Z,5.98
2023-10-29T12:13:43.332Z,5.99
2023-10-29T12:16:13.430Z,6.01
2023-10-29T12:18:43.001Z,6.02
2023-10-29T12:21:11.902Z,6.02
2023-10-29T12:23:40.389Z,6.02
2023-10-29T12:26:12.009Z,6.03
2023-10-29T12:28:40.593Z,6.04
2023-10-29T12:31:26.048Z,6.04
2023-10-29T12:33:59.016Z,6.04
2023-10-29T12:36:28.119Z,6.05
2023-10-29T12:38:56.381Z,6.07
2023-10-29T12:41:28.870Z,6.07
2023-10-29T12:43:58.785Z,6.08
2023-10-29T12:46:27.793Z,6.10
2023-10-29T12:49:06.904Z,6.12
2023-10-29T12:51:42.989Z,6.13
2023-10-29T12:54:22.912Z,6.15
2023-10-29T12:56:52.246Z,6.17
2023-10-29T12:59:21.844Z,6.19
2023-10-29T13:01:55.854Z,6.22
2023-10-29T13:04:26.244Z,6.23
2023-10-29T13:06:56.759Z,6.27
2023-10-29T13:09:26.787Z,6.30
2023-10-29T13:11:56.063Z,6.33
2023-10-29T13:14:24.267Z,6.35
2023-10-29T13:16:56.787Z,6.39
2023-10-29T13:19:25.885Z,6.42
2023-10-29T13:21:54.242Z,6.45
2023-10-29T13:24:23.931Z,6.48
2023-10-29T13:26:53.837Z,6.52
2023-10-29T13:29:22.465Z,6.56
2023-10-29T13:31:51.201Z,6.53
2023-10-29T13:34:19.347Z,6.65
2023-10-29T13:36:47.468Z,6.65
2023-10-29T13:39:19.664Z,6.72
2023-10-29T13:41:49.811Z,6.76
2023-10-29T13:44:18.736Z,6.70
2023-10-29T13:46:47.066Z,6.85
2023-10-29T13:49:15.737Z,6.88
2023-10-29T13:51:46.181Z,6.92
2023-10-29T13:54:14.548Z,6.94
2023-10-29T13:56:42.881Z,6.97
2023-10-29T13:59:11.158Z,7.00
2023-10-29T14:01:41.091Z,7.03
2023-10-29T14:04:09.756Z,7.05
2023-10-29T14:06:38.033Z,7.08
2023-10-29T14:09:06.763Z,7.06
2023-10-29T14:11:35.681Z,7.12
2023-10-29T14:14:04.427Z,7.15
2023-10-29T14:16:41.107Z,7.18
2023-10-29T14:19:10.816Z,7.22
2023-10-29T14:21:39.211Z,7.26
2023-10-29T14:24:08.822Z,7.29
2023-10-29T14:26:37.766Z,7.29
2023-10-29T14:29:06.178Z,7.35
2023-10-29T14:31:36.162Z,7.27
2023-10-29T14:34:05.187Z,7.31
2023-10-29T14:36:33.396Z,7.47
2023-10-29T14:39:01.561Z,7.50
2023-10-29T14:41:29.862Z,7.54
2023-10-29T14:43:58.054Z,7.58
2023-10-29T14:46:26.165Z,7.51
2023-10-29T14:48:54.480Z,7.65
2023-10-29T14:51:22.636Z,7.69
2023-10-29T14:53:50.949Z,7.71
2023-10-29T14:56:22.469Z,7.78
2023-10-29T14:58:50.758Z,7.82
2023-10-29T15:01:19.026Z,7.86
2023-10-29T15:03:47.992Z,7.89
2023-10-29T15:06:16.502Z,7.92
2023-10-29T15:08:44.666Z,7.94
2023-10-29T15:11:14.944Z,7.96
2023-10-29T15:13:48.722Z,7.99
2023-10-29T15:16:17.478Z,7.90
2023-10-29T15:18:45.948Z,7.88
2023-10-29T15:21:19.099Z,8.05
2023-10-29T15:23:47.349Z,8.06
2023-10-29T15:26:22.444Z,8.09
2023-10-29T15:28:51.131Z,8.12
2023-10-29T15:31:19.335Z,8.14
2023-10-29T15:33:47.811Z,8.06
2023-10-29T15:36:16.496Z,8.19
2023-10-29T15:38:45.030Z,8.22
2023-10-29T15:41:14.047Z,8.24
2023-10-29T15:43:42.172Z,8.27
2023-10-29T15:46:10.490Z,8.29
2023-10-29T15:48:38.871Z,8.31
2023-10-29T15:51:09.883Z,8.33
2023-10-29T15:53:38.474Z,8.37
2023-10-29T15:56:10.983Z,8.40
2023-10-29T15:58:39.291Z,8.42
2023-10-29T16:01:16.662Z,8.45
2023-10-29T16:03:48.898Z,8.47
2023-10-29T16:06:17.212Z,8.50
2023-10-29T16:08:45.374Z,8.53
2023-10-29T16:11:23.514Z,8.45
2023-10-29T16:13:51.975Z,8.60
2023-10-29T16:16:23.423Z,8.53
2023-10-29T16:18:53.716Z,8.68
2023-10-29T16:21:21.985Z,8.72
2023-10-29T16:23:50.165Z,8.77
2023-10-29T16:26:18.585Z,8.82
2023-10-29T16:28:47.117Z,8.85
2023-10-29T16:31:19.173Z,8.81
2023-10-29T16:33:47.960Z,8.95
2023-10-29T16:36:17.626Z,9.01
2023-10-29T16:38:46.750Z,9.05
2023-10-29T16:41:17.231Z,9.12
2023-10-29T16:43:49.349Z,9.18
2023-10-29T16:46:19.315Z,9.25
2023-10-29T16:48:48.647Z,9.30
2023-10-29T16:51:17.119Z,9.35
2023-10-29T16:53:45.712Z,9.40
2023-10-29T16:56:14.316Z,9.33
2023-10-29T16:58:43.883Z,9.49
2023-10-29T17:01:13.846Z,9.54
2023-10-29T17:03:43.280Z,9.59
2023-10-29T17:06:11.996Z,9.61
2023-10-29T17:08:40.449Z,9.64
2023-10-29T17:11:08.973Z,9.70
2023-10-29T17:13:37.444Z,9.75
2023-10-29T17:16:06.256Z,9.81
2023-10-29T17:18:35.549Z,9.87
2023-10-29T17:21:04.493Z,9.93
2023-10-29T17:23:33.089Z,9.98
2023-10-29T17:26:01.669Z,10.03
2023-10-29T17:28:30.084Z,10.10
2023-10-29T17:30:58.698Z,10.15
2023-10-29T17:33:27.178Z,10.20
2023-10-29T17:35:55.690Z,10.24
2023-10-29T17:38:24.159Z,10.30
2023-10-29T17:40:52.650Z,10.35
2023-10-29T17:43:23.211Z,10.40
2023-10-29T17:45:53.398Z,10.45
2023-10-29T17:48:22.121Z,10.51
2023-10-29T17:50:58.183Z,10.56
2023-10-29T17:53:26.869Z,10.61
2023-10-29T17:55:56.118Z,10.66
2023-10-29T17:58:24.664Z,10.72
2023-10-29T18:00:53.406Z,10.76
2023-10-29T18:03:21.883Z,10.80
2023-10-29T18:05:50.271Z,10.82
2023-10-29T18:08:18.709Z,10.85
2023-10-29T18:10:47.846Z,10.76
2023-10-29T18:13:16.499Z,10.87
2023-10-29T18:15:44.855Z,10.84
2023-10-29T18:18:13.994Z,10.87
2023-10-29T18:20:44.299Z,10.88
2023-10-29T18:23:12.938Z,10.88
2023-10-29T18:25:41.337Z,10.90
2023-10-29T18:28:09.976Z,10.92
2023-10-29T18:30:38.372Z,10.83
2023-10-29T18:33:06.968Z,10.94
2023-10-29T18:35:35.378Z,10.93
2023-10-29T18:38:05.529Z,10.94
2023-10-29T18:40:36.359Z,10.95
2023-10-29T18:43:04.840Z,10.96
2023-10-29T18:45:33.325Z,10.99
2023-10-29T18:48:01.895Z,11.01
2023-10-29T18:50:30.589Z,11.02
2023-10-29T18:52:58.954Z,11.04
2023-10-29T18:55:27.273Z,11.04
2023-10-29T18:57:55.764Z,11.04
2023-10-29T19:00:24.836Z,11.05
2023-10-29T19:02:53.720Z,11.05
2023-10-29T19:05:22.430Z,11.05
2023-10-29T19:07:50.897Z,10.95
2023-10-29T19:10:19.669Z,11.05
2023-10-29T19:12:48.134Z,11.05
2023-10-29T19:15:19.137Z,11.04
2023-10-29T19:17:47.786Z,11.04
2023-10-29T19:20:17.158Z,11.03
2023-10-29T19:22:45.600Z,11.01
2023-10-29T19:25:14.119Z,10.98
2023-10-29T19:27:42.609Z,10.96
2023-10-29T19:30:11.502Z,10.94
2023-10-29T19:32:42.050Z,10.93
2023-10-29T19:35:11.229Z,10.92
2023-10-29T19:37:40.502Z,10.92
2023-10-29T19:40:09.827Z,10.91
2023-10-29T19:42:40.192Z,10.82
2023-10-29T19:45:09.353Z,10.94
2023-10-29T19:47:37.759Z,10.95
2023-10-29T19:50:07.884Z,10.95
2023-10-29T19:52:36.315Z,10.96
2023-10-29T19:55:05.301Z,10.97
2023-10-29T19:57:34.248Z,10.99
2023-10-29T20:00:02.741Z,10.99
2023-10-29T20:02:32.904Z,10.90
2023-10-29T20:05:01.467Z,11.02
2023-10-29T20:07:30.015Z,11.03
2023-10-29T20:09:58.395Z,11.04
2023-10-29T20:12:27.297Z,11.06
2023-10-29T20:14:55.720Z,11.08
2023-10-29T20:17:24.097Z,11.09
2023-10-29T20:19:52.447Z,11.10
2023-10-29T20:22:20.938Z,11.12
2023-10-29T20:24:54.802Z,11.13
2023-10-29T20:27:23.271Z,10.94
2023-10-29T20:29:51.505Z,10.98
2023-10-29T20:32:20.199Z,11.14
2023-10-29T20:34:48.528Z,11.15
2023-10-29T20:37:16.734Z,11.15
2023-10-29T20:39:45.023Z,11.17
2023-10-29T20:42:13.458Z,11.18
2023-10-29T20:44:41.744Z,11.20
2023-10-29T20:47:11.153Z,11.22
2023-10-29T20:49:39.574Z,11.24
2023-10-29T20:52:07.940Z,11.26
2023-10-29T20:54:38.285Z,11.27
2023-10-29T20:57:06.507Z,11.28
2023-10-29T20:59:34.678Z,11.30
2023-10-29T21:02:03.027Z,11.30
2023-10-29T21:04:31.358Z,11.30
2023-10-29T21:06:59.701Z,11.30
2023-10-29T21:09:28.128Z,11.30
2023-10-29T21:11:56.654Z,11.30
2023-10-29T21:14:24.940Z,11.29
2023-10-29T21:16:53.180Z,11.29
2023-10-29T21:19:27.070Z,11.29
2023-10-29T21:21:58.839Z,11.29
2023-10-29T21:24:28.046Z,11.29
2023-10-29T21:26:57.074Z,11.27
2023-10-29T21:29:25.804Z,11.31
2023-10-29T21:31:54.332Z,11.32
2023-10-29T21:34:22.491Z,11.30
2023-10-29T21:36:50.808Z,11.32
2023-10-29T21:39:19.063Z,11.32
2023-10-29T21:41:47.507Z,11.33
2023-10-29T21:44:15.969Z,11.34
2023-10-29T21:46:46.191Z,11.34
2023-10-29T21:49:14.830Z,11.35
2023-10-29T21:51:42.964Z,11.34
2023-10-29T21:54:11.112Z,11.34
2023-10-29T21:56:39.215Z,11.35
2023-10-29T21:59:07.499Z,11.34
2023-10-29T22:01:35.808Z,11.38
2023-10-29T22:04:04.644Z,11.38
2023-10-29T22:06:34.040Z,11.39
2023-10-29T22:09:02.726Z,11.39
2023-10-29T22:11:30.905Z,11.39
2023-10-29T22:13:59.018Z,11.39
2023-10-29T22:16:27.207Z,11.40
2023-10-29T22:18:55.495Z,11.41
2023-10-29T22:21:23.621Z,11.41
2023-10-29T22:23:51.870Z,11.42
2023-10-29T22:26:20.142Z,11.43
2023-10-29T22:28:48.322Z,11.43
2023-10-29T22:31:16.787Z,11.45
2023-10-29T22:33:44.937Z,11.46
2023-10-29T22:36:13.222Z,11.39
2023-10-29T22:38:41.399Z,11.49
2023-10-29T22:41:16.289Z,11.52
2023-10-29T22:43:45.103Z,11.56
2023-10-29T22:46:21.586Z,11.58
2023-10-29T22:48:51.236Z,11.60
2023-10-29T22:51:19.966Z,11.63
2023-10-29T22:53:48.231Z,11.64
2023-10-29T22:56:16.341Z,11.66
2023-10-29T22:58:44.446Z,11.68
2023-10-29T23:01:12.685Z,11.69
2023-10-29T23:03:41.044Z,11.70
2023-10-29T23:06:09.563Z,11.71
2023-10-29T23:08:37.807Z,11.72
2023-10-29T23:11:07.527Z,11.72
2023-10-29T23:13:35.638Z,11.73
2023-10-29T23:16:04.063Z,11.74
2023-10-29T23:18:32.236Z,11.74
2023-10-29T23:21:00.386Z,11.74
2023-10-29T23:23:28.689Z,11.76
2023-10-29T23:25:56.861Z,11.73
2023-10-29T23:28:37.058Z,11.76
2023-10-29T23:31:10.061Z,11.77
2023-10-29T23:33:38.761Z,11.78
2023-10-29T23:36:07.442Z,11.79
2023-10-29T23:38:35.605Z,11.80
2023-10-29T23:41:03.987Z,11.80
2023-10-29T23:43:32.243Z,11.80
2023-10-29T23:46:00.534Z,11.80
2023-10-29T23:48:29.092Z,11.77
2023-10-29T23:50:57.348Z,11.69
2023-10-29T23:53:25.459Z,11.78
2023-10-29T23:55:53.576Z,11.77
2023-10-29T23:58:21.963Z,11.77
